Time;durP1;ratioP1;P1;durP2;ratioP2;P2;SDS_P1;SDS_P2;PMS_P1;PMS_P2;Temp;Humidity;BMP_temperature;BMP_pressure;BME280_temperature;BME280_humidity;BME280_pressure;Samples;Min_cycle;Max_cycle;Signal;HPM_P1;HPM_P2
2022/10/02 00:00:54;;;;;;;12.13;2.23;;;;;;;15.56;92.85;100756.72;4992239;28;20252;-61
2022/10/02 00:03:26;;;;;;;10.20;2.17;;;;;;;15.59;93.20;100756.34;4991463;28;20222;-62
2022/10/02 00:06:03;;;;;;;11.23;2.90;;;;;;;15.57;93.43;100761.88;4992468;28;20529;-61
2022/10/02 00:08:35;;;;;;;7.33;2.10;;;;;;;15.55;93.61;100779.09;4988415;28;20209;-61
2022/10/02 00:11:08;;;;;;;13.03;2.60;;;;;;;15.47;93.39;100779.94;4992239;28;20210;-63
2022/10/02 00:13:41;;;;;;;10.23;2.00;;;;;;;15.50;93.24;100790.25;4979350;28;20261;-61
2022/10/02 00:16:18;;;;;;;9.47;2.10;;;;;;;15.48;93.12;100792.28;4991332;28;20218;-61
2022/10/02 00:18:48;;;;;;;8.40;2.07;;;;;;;15.52;93.23;100790.09;4989026;28;20210;-60
2022/10/02 00:21:30;;;;;;;8.20;2.00;;;;;;;15.50;93.28;100794.78;4991294;28;20222;-61
2022/10/02 00:24:01;;;;;;;9.73;2.00;;;;;;;15.46;93.44;100793.47;4991236;28;20208;-61
2022/10/02 00:26:34;;;;;;;10.90;2.17;;;;;;;15.47;93.27;100789.78;4991516;28;20251;-61
2022/10/02 00:29:15;;;;;;;9.07;1.90;;;;;;;15.48;92.46;100802.97;4990130;28;20226;-61
2022/10/02 00:31:53;;;;;;;11.03;1.97;;;;;;;15.49;92.06;100803.78;4990059;28;20245;-61
2022/10/02 00:34:29;;;;;;;8.90;2.20;;;;;;;15.52;92.28;100803.47;4991044;28;20332;-61
2022/10/02 00:37:06;;;;;;;6.27;1.63;;;;;;;15.51;92.49;100807.13;4985388;28;20210;-61
2022/10/02 00:39:48;;;;;;;6.97;1.97;;;;;;;15.51;92.54;100791.09;4979015;28;20237;-61
2022/10/02 00:42:55;;;;;;;7.10;1.57;;;;;;;15.51;92.46;100793.78;4986421;28;20244;-61
2022/10/02 00:46:06;;;;;;;6.83;1.83;;;;;;;15.51;91.85;100793.78;4990634;28;20206;-61
2022/10/02 00:49:12;;;;;;;10.50;1.63;;;;;;;15.48;92.13;100792.28;4982787;28;20277;-61
2022/10/02 00:51:55;;;;;;;10.63;1.83;;;;;;;15.51;91.81;100802.63;4978664;28;20246;-61
2022/10/02 00:54:48;;;;;;;7.93;1.97;;;;;;;15.50;91.88;100794.78;4991403;28;20226;-61
2022/10/02 00:57:24;;;;;;;8.07;2.10;;;;;;;15.50;91.58;100800.13;4991193;28;20205;-61
2022/10/02 01:00:01;;;;;;;10.77;2.10;;;;;;;15.52;91.24;100812.31;4991158;28;20280;-61
2022/10/02 01:03:00;;;;;;;6.67;1.53;;;;;;;15.53;91.04;100821.16;4991069;28;20214;-61
2022/10/02 01:05:28;;;;;;;9.90;2.20;;;;;;;15.54;90.58;100817.53;4989497;28;20663;-61
2022/10/02 01:07:56;;;;;;;10.47;1.90;;;;;;;15.55;90.65;100819.19;4987248;28;20214;-61
2022/10/02 01:10:25;;;;;;;6.37;1.53;;;;;;;15.53;90.23;100794.44;4988863;28;20567;-60
2022/10/02 01:12:54;;;;;;;8.37;1.63;;;;;;;15.55;89.98;100789.78;4991457;28;20667;-61
2022/10/02 01:15:29;;;;;;;9.03;1.93;;;;;;;15.55;89.90;100795.13;4991329;28;20378;-61
2022/10/02 01:18:00;;;;;;;6.40;1.73;;;;;;;15.54;90.50;100796.13;4977879;28;20205;-61
2022/10/02 01:20:35;;;;;;;8.73;2.13;;;;;;;15.55;90.24;100797.81;4978684;28;20202;-61
2022/10/02 01:23:17;;;;;;;7.27;1.67;;;;;;;15.55;89.92;100800.50;4985585;28;20217;-60
2022/10/02 01:25:46;;;;;;;11.30;2.00;;;;;;;15.51;90.72;100801.78;4981407;28;20210;-61
2022/10/02 01:28:13;;;;;;;9.27;1.90;;;;;;;15.53;90.71;100792.59;4990784;28;20209;-61
2022/10/02 01:30:45;;;;;;;10.90;1.70;;;;;;;15.56;90.46;100783.44;4991457;28;20365;-60
2022/10/02 01:33:14;;;;;;;8.63;2.03;;;;;;;15.55;90.33;100792.47;4995636;28;20261;-60
2022/10/02 01:35:43;;;;;;;10.30;2.30;;;;;;;15.55;90.24;100793.31;4996087;28;20210;-61
2022/10/02 01:38:16;;;;;;;10.03;1.90;;;;;;;15.54;89.87;100798.81;4994416;28;20301;-61
2022/10/02 01:40:43;;;;;;;9.90;1.73;;;;;;;15.55;90.72;100803.16;4982879;28;20210;-61
2022/10/02 01:43:16;;;;;;;7.27;1.70;;;;;;;15.55;90.73;100800.50;4995013;28;20243;-61
2022/10/02 01:45:56;;;;;;;8.90;2.20;;;;;;;15.56;90.98;100810.19;4994456;28;20214;-61
2022/10/02 01:48:39;;;;;;;8.30;1.77;;;;;;;15.55;90.52;100808.50;4994404;28;20205;-60
2022/10/02 01:51:22;;;;;;;9.10;2.30;;;;;;;15.55;90.46;100814.69;4987155;28;20692;-60
2022/10/02 01:54:01;;;;;;;8.40;1.67;;;;;;;15.56;90.33;100805.66;4994930;28;20213;-60
2022/10/02 01:56:37;;;;;;;10.00;2.20;;;;;;;15.57;90.47;100817.19;4991271;28;20210;-59
2022/10/02 01:59:16;;;;;;;10.50;2.60;;;;;;;15.56;90.40;100797.66;4990635;28;20206;-60
2022/10/02 02:01:51;;;;;;;9.33;2.10;;;;;;;15.59;90.01;100810.66;4988213;28;20218;-60
2022/10/02 02:04:23;;;;;;;9.50;1.93;;;;;;;15.58;90.41;100802.78;4994752;28;20225;-59
2022/10/02 02:06:57;;;;;;;8.97;2.13;;;;;;;15.59;90.30;100809.81;4994908;28;20206;-61
2022/10/02 02:09:32;;;;;;;11.17;2.20;;;;;;;15.59;90.31;100810.66;4994439;28;20206;-60
2022/10/02 02:12:07;;;;;;;8.33;1.70;;;;;;;15.60;89.72;100815.00;4994269;28;20632;-64
2022/10/02 02:14:42;;;;;;;10.00;2.27;;;;;;;15.61;89.70;100814.00;4993674;28;20213;-61
2022/10/02 02:17:17;;;;;;;6.27;1.90;;;;;;;15.62;89.62;100815.66;4994457;28;20252;-61
2022/10/02 02:19:48;;;;;;;10.73;2.77;;;;;;;15.62;89.83;100814.81;4993789;28;20217;-62
2022/10/02 02:22:19;;;;;;;8.63;2.00;;;;;;;15.60;89.92;100811.47;4993338;28;20279;-61
2022/10/02 02:24:52;;;;;;;12.97;2.70;;;;;;;15.61;90.49;100813.16;4993909;28;20214;-61
2022/10/02 02:27:25;;;;;;;12.00;2.30;;;;;;;15.61;90.03;100808.66;4994204;28;20214;-61
2022/10/02 02:29:57;;;;;;;10.07;2.20;;;;;;;15.66;89.35;100816.13;4992921;28;20230;-62
2022/10/02 02:32:31;;;;;;;9.67;2.57;;;;;;;15.64;89.68;100812.81;4993426;28;20234;-62
2022/10/02 02:35:04;;;;;;;9.53;2.10;;;;;;;15.64;89.54;100813.66;4991571;28;20214;-61
2022/10/02 02:37:35;;;;;;;8.43;1.97;;;;;;;15.68;89.96;100803.44;4996260;28;20285;-61
2022/10/02 02:40:08;;;;;;;8.13;2.10;;;;;;;15.67;89.66;100807.09;4985238;28;20215;-61
2022/10/02 02:42:40;;;;;;;10.97;2.70;;;;;;;15.66;89.84;100805.44;4991786;28;20210;-61
2022/10/02 02:45:15;;;;;;;8.37;2.20;;;;;;;15.67;89.69;100802.59;4993800;28;20694;-61
2022/10/02 02:47:48;;;;;;;10.07;2.20;;;;;;;15.68;90.22;100798.09;4993885;28;20569;-61
2022/10/02 02:50:20;;;;;;;10.30;2.80;;;;;;;15.66;90.39;100794.75;4992417;28;20253;-61
2022/10/02 02:52:53;;;;;;;8.57;2.40;;;;;;;15.67;90.36;100791.06;4993248;28;20291;-61
2022/10/02 02:55:25;;;;;;;8.17;2.37;;;;;;;15.68;90.77;100787.38;4993128;28;20229;-61
2022/10/02 02:57:58;;;;;;;7.83;2.30;;;;;;;15.67;90.57;100796.41;4992385;28;20201;-61
2022/10/02 03:00:27;;;;;;;14.43;2.53;;;;;;;15.67;91.01;100793.75;4992550;28;20206;-62
2022/10/02 03:02:54;;;;;;;6.40;2.10;;;;;;;15.61;90.81;100791.78;4993228;28;20207;-61
2022/10/02 03:05:24;;;;;;;13.77;3.37;;;;;;;15.63;91.10;100801.28;4993228;28;20218;-61
2022/10/02 03:07:54;;;;;;;9.60;3.30;;;;;;;15.61;91.42;100811.31;4993132;28;20358;-62
2022/10/02 03:10:32;;;;;;;9.93;2.93;;;;;;;15.62;91.31;100809.47;4990799;28;20683;-62
2022/10/02 03:13:23;;;;;;;10.87;2.80;;;;;;;15.62;90.71;100821.00;4986033;28;20260;-61
2022/10/02 03:16:03;;;;;;;9.50;2.83;;;;;;;15.63;90.10;100817.34;4993311;28;20226;-61
2022/10/02 03:18:52;;;;;;;10.53;2.57;;;;;;;15.70;89.82;100817.47;4993110;28;20730;-61
2022/10/02 03:21:26;;;;;;;13.70;3.43;;;;;;;15.71;90.45;100803.94;4992323;28;20214;-61
2022/10/02 03:24:04;;;;;;;9.37;2.73;;;;;;;15.70;89.82;100804.09;4992755;28;20708;-61
2022/10/02 03:26:38;;;;;;;12.10;3.10;;;;;;;15.70;90.16;100812.13;4992653;28;20248;-61
2022/10/02 03:29:11;;;;;;;13.33;3.50;;;;;;;15.73;90.04;100822.47;4987403;28;20606;-61
2022/10/02 03:31:41;;;;;;;8.87;2.97;;;;;;;15.70;90.09;100828.16;4989924;28;20237;-61
2022/10/02 03:34:10;;;;;;;9.43;3.23;;;;;;;15.69;89.91;100826.50;4991954;28;20241;-61
2022/10/02 03:36:38;;;;;;;13.57;3.23;;;;;;;15.69;90.33;100824.66;4997614;28;20297;-60
2022/10/02 03:39:07;;;;;;;13.00;2.80;;;;;;;15.68;90.21;100819.47;4991708;28;20703;-62
2022/10/02 03:41:54;;;;;;;13.37;2.80;;;;;;;15.71;90.14;100821.81;4988996;28;20234;-61
2022/10/02 03:44:22;;;;;;;18.07;3.43;;;;;;;15.71;91.04;100819.13;4992317;28;20283;-61
2022/10/02 03:46:51;;;;;;;10.73;3.30;;;;;;;15.67;90.67;100813.28;4991703;28;20210;-61
2022/10/02 03:49:19;;;;;;;15.97;3.40;;;;;;;15.71;90.44;100819.97;4991620;28;20225;-62
2022/10/02 03:51:46;;;;;;;12.37;3.20;;;;;;;15.66;90.81;100829.50;4991196;28;20248;-62
2022/10/02 03:54:17;;;;;;;14.97;3.23;;;;;;;15.69;90.23;100824.66;4991670;28;20721;-62
2022/10/02 03:56:53;;;;;;;11.77;3.10;;;;;;;15.67;90.56;100833.84;4991533;28;20218;-62
2022/10/02 03:59:33;;;;;;;18.97;3.60;;;;;;;15.69;90.71;100829.16;4987862;28;20647;-61
2022/10/02 04:02:07;;;;;;;11.87;2.90;;;;;;;15.70;91.09;100828.16;4991455;28;20202;-61
2022/10/02 04:04:44;;;;;;;12.37;3.00;;;;;;;15.65;91.29;100836.72;4992015;28;20210;-61
2022/10/02 04:07:17;;;;;;;12.63;3.10;;;;;;;15.69;90.76;100837.19;4991904;28;20686;-61
2022/10/02 04:09:54;;;;;;;12.03;2.87;;;;;;;15.65;91.11;100834.03;4991884;28;20221;-61
2022/10/02 04:12:29;;;;;;;14.97;3.23;;;;;;;15.68;91.05;100827.50;4991630;28;20565;-61
2022/10/02 04:15:03;;;;;;;11.83;3.17;;;;;;;15.64;92.01;100835.03;4991757;28;20217;-61
2022/10/02 04:17:42;;;;;;;19.87;4.13;;;;;;;15.71;91.80;100835.19;4991906;28;20225;-61
2022/10/02 04:20:16;;;;;;;13.60;3.10;;;;;;;15.62;91.90;100831.69;4977712;28;20294;-61
2022/10/02 04:22:50;;;;;;;14.63;3.40;;;;;;;15.63;92.43;100837.88;4991917;28;20635;-61
2022/10/02 04:25:20;;;;;;;14.00;3.57;;;;;;;15.61;91.85;100837.22;4973700;28;20215;-61
2022/10/02 04:27:52;;;;;;;15.13;4.23;;;;;;;15.63;92.22;100843.22;4990813;28;20264;-61
2022/10/02 04:30:20;;;;;;;12.93;2.70;;;;;;;15.65;92.16;100825.19;4977665;28;20305;-61
2022/10/02 04:32:50;;;;;;;10.13;2.50;;;;;;;15.65;91.39;100835.88;4991447;28;20250;-61
2022/10/02 04:35:25;;;;;;;12.30;3.20;;;;;;;15.66;92.30;100829.50;4995284;28;20225;-61
2022/10/02 04:38:08;;;;;;;18.20;3.57;;;;;;;15.66;92.54;100826.81;4999354;28;20728;-61
2022/10/02 04:40:53;;;;;;;14.70;3.13;;;;;;;15.63;94.06;100827.19;4984692;28;20209;-61
2022/10/02 04:43:35;;;;;;;14.93;3.20;;;;;;;15.58;95.16;100825.00;4991015;28;20222;-61
2022/10/02 04:46:18;;;;;;;10.37;2.40;;;;;;;15.55;95.22;100824.53;4984548;28;20218;-61
2022/10/02 04:49:07;;;;;;;13.30;3.57;;;;;;;15.54;95.51;100817.53;4989408;28;20253;-61
2022/10/02 04:51:49;;;;;;;15.37;3.00;;;;;;;15.56;95.32;100826.22;4990871;28;20273;-61
2022/10/02 04:54:37;;;;;;;12.20;2.57;;;;;;;15.56;95.54;100821.69;4988438;28;20222;-61
2022/10/02 04:57:22;;;;;;;12.70;2.70;;;;;;;15.53;95.54;100821.16;4987467;28;20651;-61
2022/10/02 05:00:03;;;;;;;14.33;2.73;;;;;;;15.53;95.43;100826.50;4991575;28;20296;-61
2022/10/02 05:02:48;;;;;;;14.70;3.37;;;;;;;15.56;95.42;100829.72;4990952;28;20210;-61
2022/10/02 05:05:30;;;;;;;17.57;2.93;;;;;;;15.57;95.37;100834.03;4990230;28;20213;-61
2022/10/02 05:08:33;;;;;;;11.33;2.93;;;;;;;15.59;95.64;100831.19;4982868;28;20202;-62
2022/10/02 05:11:33;;;;;;;14.07;2.53;;;;;;;15.55;95.19;100827.22;4965896;28;20202;-61
2022/10/02 05:14:14;;;;;;;11.27;2.57;;;;;;;15.54;96.25;100831.72;4976805;28;20209;-61
2022/10/02 05:16:58;;;;;;;9.80;2.57;;;;;;;15.55;96.08;100830.72;4989029;28;20225;-61
2022/10/02 05:19:51;;;;;;;13.53;2.83;;;;;;;15.58;95.23;100825.00;4991101;28;20648;-61
2022/10/02 05:22:34;;;;;;;11.63;3.13;;;;;;;15.60;95.77;100828.34;4990245;28;20205;-62
2022/10/02 05:25:20;;;;;;;13.80;2.83;;;;;;;15.53;97.40;100823.84;4990420;28;20205;-62
2022/10/02 05:28:08;;;;;;;10.83;3.17;;;;;;;15.53;96.61;100834.53;4990035;28;20222;-60
2022/10/02 05:30:45;;;;;;;13.83;2.73;;;;;;;15.54;96.86;100822.88;4977063;28;20207;-60
2022/10/02 05:33:35;;;;;;;11.93;3.27;;;;;;;15.53;97.74;100818.50;4988729;28;20241;-61
2022/10/02 05:36:22;;;;;;;12.93;2.70;;;;;;;15.54;97.63;100812.19;4989382;28;20210;-60
2022/10/02 05:39:02;;;;;;;15.87;2.67;;;;;;;15.49;98.73;100814.47;4986352;28;20202;-60
2022/10/02 05:41:40;;;;;;;9.93;2.33;;;;;;;15.42;98.99;100820.53;4986780;28;20198;-61
2022/10/02 05:44:15;;;;;;;10.80;2.43;;;;;;;15.46;98.61;100822.88;4978682;28;20218;-60
2022/10/02 05:46:46;;;;;;;12.40;2.80;;;;;;;15.44;98.28;100820.34;4989722;28;20209;-61
2022/10/02 05:49:18;;;;;;;10.03;2.10;;;;;;;15.46;98.29;100817.53;4990217;28;20214;-61
2022/10/02 05:51:54;;;;;;;10.77;2.73;;;;;;;15.47;98.26;100820.03;4986060;28;20226;-60
2022/10/02 05:54:34;;;;;;;12.57;2.67;;;;;;;15.45;98.85;100830.03;4990773;28;20221;-62
2022/10/02 05:57:11;;;;;;;12.93;2.17;;;;;;;15.40;99.93;100832.38;4990876;28;20618;-61
2022/10/02 05:59:45;;;;;;;13.33;2.10;;;;;;;15.43;99.53;100832.88;4991116;28;20218;-62
2022/10/02 06:02:23;;;;;;;10.17;2.53;;;;;;;15.43;99.29;100832.03;4989062;28;20565;-62
2022/10/02 06:04:59;;;;;;;9.23;2.33;;;;;;;15.44;99.49;100837.22;4990268;28;20571;-62
2022/10/02 06:07:28;;;;;;;10.27;2.83;;;;;;;15.46;98.82;100839.72;4990907;28;20205;-62
2022/10/02 06:10:03;;;;;;;10.07;2.40;;;;;;;15.44;98.84;100839.91;4980721;28;20655;-62
2022/10/02 06:12:36;;;;;;;12.90;2.63;;;;;;;15.47;98.11;100851.25;4990580;28;20222;-62
2022/10/02 06:15:09;;;;;;;8.37;2.10;;;;;;;15.47;98.26;100849.44;4990882;28;20272;-62
2022/10/02 06:17:41;;;;;;;10.83;2.20;;;;;;;15.51;97.66;100852.56;4990219;28;20206;-62
2022/10/02 06:20:19;;;;;;;10.33;2.33;;;;;;;15.52;97.13;100851.56;4992594;28;20829;-62
2022/10/02 06:22:50;;;;;;;10.27;2.60;;;;;;;15.55;96.66;100851.28;4994058;28;20233;-62
2022/10/02 06:25:25;;;;;;;9.53;2.33;;;;;;;15.55;96.74;100844.09;4980952;28;20218;-62
2022/10/02 06:27:58;;;;;;;9.13;2.07;;;;;;;15.53;96.53;100843.38;4993424;28;20212;-62
2022/10/02 06:30:29;;;;;;;10.43;2.30;;;;;;;15.52;96.84;100835.53;4988288;28;20210;-62
2022/10/02 06:33:01;;;;;;;12.13;2.90;;;;;;;15.54;96.82;100842.41;4993430;28;20711;-62
2022/10/02 06:35:51;;;;;;;9.57;2.10;;;;;;;15.49;97.60;100825.16;4987336;28;20217;-62
2022/10/02 06:38:34;;;;;;;10.57;2.07;;;;;;;15.47;97.95;100827.22;4985204;28;20214;-62
2022/10/02 06:41:13;;;;;;;11.23;2.67;;;;;;;15.43;98.38;100827.53;4993573;28;20213;-62
2022/10/02 06:43:59;;;;;;;8.50;2.33;;;;;;;15.43;98.99;100832.88;4995532;28;20198;-62
2022/10/02 06:46:37;;;;;;;7.63;2.23;;;;;;;15.36;100.00;100831.91;4995239;28;20225;-62
2022/10/02 06:49:15;;;;;;;9.83;2.20;;;;;;;15.34;100.00;100833.91;4987637;28;20690;-62
2022/10/02 06:51:56;;;;;;;7.57;2.10;;;;;;;15.34;100.00;100833.06;4993872;28;20647;-61
2022/10/02 06:54:46;;;;;;;11.10;2.57;;;;;;;15.33;100.00;100842.91;4993500;28;20541;-62
2022/10/02 06:57:40;;;;;;;8.60;2.23;;;;;;;15.32;100.00;100843.91;4992480;28;20264;-61
2022/10/02 07:00:11;;;;;;;11.07;2.97;;;;;;;15.31;100.00;100846.75;4994048;28;20291;-62
2022/10/02 07:03:18;;;;;;;9.30;2.50;;;;;;;15.33;100.00;100842.91;4981373;28;20206;-61
2022/10/02 07:05:58;;;;;;;12.13;2.47;;;;;;;15.30;100.00;100845.91;4913788;29;20219;-62
2022/10/02 07:08:36;;;;;;;6.93;2.20;;;;;;;15.32;100.00;100843.09;4988520;28;20214;-61
2022/10/02 07:11:15;;;;;;;6.53;2.13;;;;;;;15.27;100.00;100848.94;4994447;28;20539;-62
2022/10/02 07:14:01;;;;;;;9.27;2.27;;;;;;;15.22;100.00;100845.09;4994962;28;20672;-62
2022/10/02 07:16:42;;;;;;;6.60;2.03;;;;;;;15.23;100.00;100852.94;4981840;28;20232;-61
2022/10/02 07:19:35;;;;;;;13.37;2.60;;;;;;;15.29;100.00;100854.13;4990874;28;20636;-60
2022/10/02 07:22:18;;;;;;;9.50;2.60;;;;;;;15.23;100.00;100850.28;4982202;28;20647;-62
2022/10/02 07:25:27;;;;;;;8.03;2.00;;;;;;;15.20;100.00;100845.28;4994110;28;20632;-62
2022/10/02 07:28:04;;;;;;;5.73;2.33;;;;;;;15.18;100.00;100852.63;4992826;28;20201;-62
2022/10/02 07:30:43;;;;;;;7.10;3.00;;;;;;;15.20;100.00;100858.66;4992095;28;20222;-62
2022/10/02 07:33:23;;;;;;;10.80;3.40;;;;;;;15.28;100.00;100866.66;4993140;28;20709;-62
2022/10/02 07:36:04;;;;;;;9.57;3.03;;;;;;;15.27;100.00;100856.97;4992865;28;20670;-62
2022/10/02 07:38:54;;;;;;;9.10;3.27;;;;;;;15.29;100.00;100854.97;4998230;28;20239;-62
2022/10/02 07:41:47;;;;;;;13.00;3.43;;;;;;;15.29;100.00;100862.16;4992871;28;20218;-62
2022/10/02 07:44:30;;;;;;;8.50;3.03;;;;;;;15.26;100.00;100867.81;4982376;28;20206;-61
2022/10/02 07:47:08;;;;;;;8.63;3.27;;;;;;;15.26;100.00;100867.81;4992071;28;20206;-62
2022/10/02 07:49:50;;;;;;;15.93;3.60;;;;;;;15.25;100.00;100858.97;4986358;28;20210;-62
2022/10/02 07:52:29;;;;;;;10.23;3.30;;;;;;;15.22;100.00;100869.16;4992511;28;20260;-62
2022/10/02 07:55:08;;;;;;;13.57;3.17;;;;;;;15.29;100.00;100878.19;4993134;28;20268;-62
2022/10/02 07:57:42;;;;;;;8.10;3.03;;;;;;;15.32;100.00;100867.97;4992871;28;20217;-62
2022/10/02 08:00:14;;;;;;;8.83;2.60;;;;;;;15.28;100.00;100871.16;4992730;28;20205;-62
2022/10/02 08:02:49;;;;;;;9.57;2.90;;;;;;;15.27;100.00;100864.16;4992280;28;20964;-62
2022/10/02 08:05:22;;;;;;;11.60;3.30;;;;;;;15.25;100.00;100864.31;4993110;28;20582;-62
2022/10/02 08:07:53;;;;;;;8.30;3.00;;;;;;;15.22;100.00;100861.97;4992350;28;20662;-62
2022/10/02 08:10:25;;;;;;;8.33;3.33;;;;;;;15.22;100.00;100869.16;4987805;28;20612;-62
2022/10/02 08:13:03;;;;;;;8.37;2.93;;;;;;;15.18;100.00;100844.63;4982249;28;20230;-62
2022/10/02 08:15:34;;;;;;;7.43;3.10;;;;;;;15.15;100.00;100850.28;4993274;28;20804;-62
2022/10/02 08:18:12;;;;;;;6.57;2.53;;;;;;;15.15;100.00;100850.28;4992647;28;20221;-61
2022/10/02 08:21:01;;;;;;;8.40;3.53;;;;;;;15.20;100.00;100852.47;4990988;28;20269;-62
2022/10/02 08:23:36;;;;;;;11.53;3.90;;;;;;;15.18;100.00;100860.66;4992596;28;20206;-61
2022/10/02 08:26:09;;;;;;;8.67;2.57;;;;;;;15.21;100.00;100852.31;4992542;28;20308;-63
2022/10/02 08:28:42;;;;;;;5.73;1.97;;;;;;;15.17;100.00;100852.81;4989656;28;20214;-62
2022/10/02 08:31:11;;;;;;;4.67;2.07;;;;;;;15.16;100.00;100859.13;4992012;28;20262;-62
2022/10/02 08:33:40;;;;;;;5.87;2.20;;;;;;;15.17;100.00;100863.47;5001053;28;20237;-61
2022/10/02 08:36:52;;;;;;;6.27;2.23;;;;;;;15.20;100.00;100861.31;4990997;28;20262;-60
2022/10/02 08:39:39;;;;;;;7.80;1.73;;;;;;;15.21;100.00;100863.00;4987148;28;20593;-62
2022/10/02 08:42:56;;;;;;;8.20;2.60;;;;;;;15.21;100.00;100854.97;4991961;28;20234;-62
2022/10/02 08:45:51;;;;;;;6.67;2.43;;;;;;;15.19;100.00;100848.97;4992283;28;20283;-62
2022/10/02 08:48:57;;;;;;;8.60;3.20;;;;;;;15.22;100.00;100853.13;4992174;28;20237;-62
2022/10/02 08:52:02;;;;;;;7.67;2.27;;;;;;;15.25;100.00;100856.28;4984148;28;20209;-62
2022/10/02 08:55:05;;;;;;;5.60;2.13;;;;;;;15.30;100.00;100861.94;4982512;28;20237;-63
2022/10/02 08:58:05;;;;;;;4.37;1.80;;;;;;;15.32;100.00;100869.81;4978830;28;20276;-61
2022/10/02 09:00:46;;;;;;;5.97;1.80;;;;;;;15.36;100.00;100866.63;4959718;28;20605;-61
2022/10/02 09:03:53;;;;;;;5.37;2.07;;;;;;;15.38;100.00;100859.28;4993075;28;20785;-61
2022/10/02 09:07:06;;;;;;;5.50;2.00;;;;;;;15.37;100.00;100860.28;4992143;28;20206;-61
2022/10/02 09:10:04;;;;;;;5.93;2.10;;;;;;;15.34;100.00;100876.66;4989620;28;20272;-62
2022/10/02 09:13:09;;;;;;;5.63;2.23;;;;;;;15.39;100.00;100868.16;4992864;28;20225;-61
2022/10/02 09:15:45;;;;;;;5.73;2.37;;;;;;;15.46;100.00;100849.59;4992368;28;20268;-61
2022/10/02 09:18:41;;;;;;;4.97;1.90;;;;;;;15.45;100.00;100859.44;4991460;28;20577;-61
2022/10/02 09:21:16;;;;;;;5.73;1.80;;;;;;;15.42;100.00;100857.94;4981324;28;20277;-61
2022/10/02 09:24:31;;;;;;;3.47;1.57;;;;;;;15.42;100.00;100863.28;4990952;28;20204;-62
2022/10/02 09:27:40;;;;;;;4.00;1.87;;;;;;;15.43;100.00;100848.09;4985053;28;20237;-61
2022/10/02 09:30:20;;;;;;;4.03;1.40;;;;;;;15.43;100.00;100848.91;4990668;28;20206;-62
2022/10/02 09:33:26;;;;;;;3.90;1.40;;;;;;;15.42;100.00;100852.59;4990521;28;20253;-62
2022/10/02 09:36:28;;;;;;;3.23;1.50;;;;;;;15.41;100.00;100864.28;4983142;28;20216;-62
2022/10/02 09:39:29;;;;;;;3.63;1.60;;;;;;;15.39;100.00;100860.94;4991014;28;20265;-62
2022/10/02 09:42:32;;;;;;;2.83;1.30;;;;;;;15.47;100.00;100859.28;4990129;28;20206;-62
2022/10/02 09:45:28;;;;;;;4.27;1.57;;;;;;;15.48;100.00;100861.75;4991095;28;20213;-62
2022/10/02 09:48:29;;;;;;;4.47;1.53;;;;;;;15.46;100.00;100860.28;4949401;28;20244;-62
2022/10/02 09:51:27;;;;;;;4.03;1.93;;;;;;;15.44;100.00;100855.09;4980092;28;20217;-62
2022/10/02 09:54:26;;;;;;;8.57;2.87;;;;;;;15.43;100.00;100851.59;4995371;28;20214;-62
2022/10/02 09:57:19;;;;;;;6.97;2.33;;;;;;;15.43;100.00;100848.91;4995833;28;20214;-62
2022/10/02 10:00:10;;;;;;;4.67;2.13;;;;;;;15.46;100.00;100862.94;4995775;28;20213;-62
2022/10/02 10:03:11;;;;;;;5.70;1.57;;;;;;;15.48;100.00;100866.28;4995124;28;20206;-62
2022/10/02 10:05:55;;;;;;;4.20;1.57;;;;;;;15.54;100.00;100870.97;4993956;28;20217;-62
2022/10/02 10:08:57;;;;;;;5.80;1.83;;;;;;;15.55;100.00;100875.31;4995609;28;20236;-62
2022/10/02 10:11:51;;;;;;;3.77;1.83;;;;;;;15.59;100.00;100873.97;4990934;28;20202;-62
2022/10/02 10:14:44;;;;;;;2.23;1.07;;;;;;;15.59;100.00;100874.81;4992531;28;20233;-62
2022/10/02 10:17:44;;;;;;;3.67;1.23;;;;;;;15.58;100.00;100866.94;4992936;28;20217;-62
2022/10/02 10:20:53;;;;;;;2.10;1.30;;;;;;;15.54;100.00;100860.28;4966080;28;20210;-62
2022/10/02 10:23:41;;;;;;;4.70;1.07;;;;;;;15.55;100.00;100865.47;4994571;28;20210;-62
2022/10/02 10:26:33;;;;;;;5.27;1.27;;;;;;;15.65;100.00;100851.91;4992089;28;20238;-62
2022/10/02 10:29:28;;;;;;;5.27;1.97;;;;;;;15.66;100.00;100840.19;4994183;28;20515;-62
2022/10/02 10:32:26;;;;;;;3.67;1.30;;;;;;;15.56;100.00;100858.28;4991970;28;20273;-62
2022/10/02 10:35:25;;;;;;;3.73;1.30;;;;;;;15.60;100.00;100859.59;4974771;28;20274;-63
2022/10/02 10:41:04;;;;;;;2.37;1.10;;;;;;;15.62;100.00;100857.59;4962316;28;20203;-62
2022/10/02 10:44:07;;;;;;;4.13;1.60;;;;;;;15.67;100.00;100863.25;4975048;28;20214;-61
2022/10/02 10:46:58;;;;;;;2.80;1.20;;;;;;;15.71;100.00;100868.09;4974530;28;20686;-61
2022/10/02 10:50:08;;;;;;;2.87;1.53;;;;;;;15.76;100.00;100864.88;4967584;28;20218;-61
2022/10/02 10:53:07;;;;;;;2.57;1.27;;;;;;;15.77;100.00;100872.75;4972296;28;20215;-62
2022/10/02 10:55:53;;;;;;;2.53;1.30;;;;;;;15.81;100.00;100873.25;4970225;28;20235;-62
2022/10/02 10:58:34;;;;;;;3.63;1.57;;;;;;;15.86;100.00;100876.22;4975573;28;20214;-62
2022/10/02 11:01:13;;;;;;;2.90;1.33;;;;;;;15.89;100.00;100881.25;4962275;28;20210;-61
2022/10/02 11:04:31;;;;;;;2.43;1.37;;;;;;;15.92;100.00;100872.06;4974702;28;20636;-62
2022/10/02 11:07:14;;;;;;;2.43;1.10;;;;;;;15.92;100.00;100877.41;4914002;29;20216;-62
2022/10/02 11:10:03;;;;;;;2.77;1.10;;;;;;;15.94;100.00;100876.19;4973165;28;20215;-62
2022/10/02 11:12:55;;;;;;;1.83;1.10;;;;;;;15.97;100.00;100873.19;4964817;28;20210;-62
2022/10/02 11:15:53;;;;;;;3.57;1.10;;;;;;;15.98;100.00;100882.88;4969860;28;20623;-61
2022/10/02 11:18:49;;;;;;;2.57;0.97;;;;;;;15.95;100.00;100885.88;4964849;28;20218;-62
2022/10/02 11:21:40;;;;;;;1.40;0.70;;;;;;;15.97;100.00;100888.41;4968377;28;20222;-61
2022/10/02 11:24:44;;;;;;;1.40;0.90;;;;;;;15.95;100.00;100879.72;4974476;28;20607;-62
2022/10/02 11:27:25;;;;;;;2.10;0.80;;;;;;;15.95;100.00;100877.88;4974259;28;20652;-62
2022/10/02 11:30:19;;;;;;;2.20;0.87;;;;;;;15.95;100.00;100883.22;4972452;28;20207;-62
2022/10/02 11:33:29;;;;;;;2.30;0.97;;;;;;;15.97;100.00;100889.22;4975150;28;20250;-62
2022/10/02 11:36:22;;;;;;;2.37;1.07;;;;;;;15.94;100.00;100878.03;4984188;28;20246;-61
2022/10/02 11:39:13;;;;;;;1.70;0.80;;;;;;;15.97;100.00;100888.41;4992768;28;20210;-62
2022/10/02 11:42:08;;;;;;;1.97;1.20;;;;;;;15.95;100.00;100898.44;4988599;28;20264;-61
2022/10/02 11:44:51;;;;;;;4.90;1.63;;;;;;;15.96;100.00;100889.41;4990679;28;20206;-62
2022/10/02 11:47:54;;;;;;;1.60;0.90;;;;;;;15.97;100.00;100893.75;4990982;28;20210;-62
2022/10/02 11:50:57;;;;;;;2.80;0.93;;;;;;;15.98;100.00;100896.25;4990145;28;20217;-61
2022/10/02 11:53:38;;;;;;;1.73;0.87;;;;;;;15.95;100.00;100896.59;4985650;28;20675;-61
2022/10/02 11:56:29;;;;;;;1.87;0.83;;;;;;;15.94;100.00;100886.06;4986603;28;20210;-61
2022/10/02 11:59:17;;;;;;;2.93;0.80;;;;;;;15.93;100.00;100890.56;4991703;28;20297;-60
2022/10/02 12:01:51;;;;;;;1.23;0.80;;;;;;;15.90;100.00;100890.94;4991862;28;20206;-61
2022/10/02 12:04:32;;;;;;;1.83;0.70;;;;;;;15.93;100.00;100882.53;4992529;28;20209;-61
2022/10/02 12:07:19;;;;;;;3.23;0.83;;;;;;;15.96;100.00;100884.06;4992086;28;20212;-61
2022/10/02 12:09:58;;;;;;;2.93;1.20;;;;;;;15.94;100.00;100876.19;4990894;28;20221;-62
2022/10/02 12:12:39;;;;;;;3.03;1.07;;;;;;;16.01;100.00;100884.34;4991579;28;20470;-62
2022/10/02 12:15:22;;;;;;;3.03;1.10;;;;;;;16.01;100.00;100884.34;4990436;28;20570;-62
2022/10/02 12:18:05;;;;;;;1.50;0.70;;;;;;;15.97;100.00;100875.03;4991253;28;20201;-61
2022/10/02 12:27:02;;;;;;;2.10;0.83;;;;;;;16.02;100.00;100867.31;4991739;28;20206;-62
2022/10/02 12:29:59;;;;;;;1.47;0.90;;;;;;;16.04;100.00;100876.00;4990796;28;20280;-60
2022/10/02 12:32:53;;;;;;;1.90;0.97;;;;;;;16.02;100.00;100875.31;4988370;28;20237;-60
2022/10/02 12:35:34;;;;;;;2.53;1.10;;;;;;;16.03;100.00;100869.81;4992477;28;20230;-60
2022/10/02 12:38:14;;;;;;;2.07;1.30;;;;;;;16.00;100.00;100872.00;4991849;28;20202;-61